Terminal Aerodrome Forecast
Issued by NWS

Home | Current Version | Previous Version | Text Only | Print | Product List | Glossary On
Versions: 1 2 3 4 5 6 7 8 9 10 11 12 13 14 15 16 17 18 19 20 21 22 23 24 25 26
409
FTUS42 KTBW 212200 AAA
TAFPIE
TAF AMD
KPIE 212200Z 2122/2218 11010KT 5SM -RA VCTS SCT015CB BKN025 OVC040
      TEMPO 2122/2124 VRB15G25KT 2SM +TSRA BKN015CB
     FM220200 11008KT P6SM SCT025 BKN060
     FM221000 11008KT P6SM FEW010 BKN060
     FM221400 13010KT P6SM VCSH SCT015 BKN060
     FM221700 15010KT P6SM VCTS SCT025CB BKN040=

USA.gov is the U.S. government's official web portal to all federal, state and local government web resources and services.